sensor_id;sensor_type;location;lat;lon;timestamp;pressure;altitude;pressure_sealevel;temperature;humidity
64835;BME280;51293;59.296;18.006;2023-02-04T00:01:34;102284.38;;;-4.96;84.02
64835;BME280;51293;59.296;18.006;2023-02-04T00:03:59;102293.53;;;-5.01;83.76
64835;BME280;51293;59.296;18.006;2023-02-04T00:06:25;102291.06;;;-5.04;83.88
64835;BME280;51293;59.296;18.006;2023-02-04T00:08:51;102294.00;;;-4.95;83.93
64835;BME280;51293;59.296;18.006;2023-02-04T00:11:16;102295.22;;;-5.00;84.00
64835;BME280;51293;59.296;18.006;2023-02-04T00:13:42;102299.66;;;-5.01;84.25
64835;BME280;51293;59.296;18.006;2023-02-04T00:16:07;102312.31;;;-4.92;84.04
64835;BME280;51293;59.296;18.006;2023-02-04T00:18:32;102324.78;;;-4.94;84.06
64835;BME280;51293;59.296;18.006;2023-02-04T00:20:58;102319.88;;;-4.86;83.84
64835;BME280;51293;59.296;18.006;2023-02-04T00:23:23;102316.59;;;-4.75;83.55
64835;BME280;51293;59.296;18.006;2023-02-04T00:25:48;102333.94;;;-4.85;83.79
64835;BME280;51293;59.296;18.006;2023-02-04T00:28:14;102330.94;;;-4.79;83.81
64835;BME280;51293;59.296;18.006;2023-02-04T00:30:39;102321.38;;;-4.82;84.12
64835;BME280;51293;59.296;18.006;2023-02-04T00:33:05;102318.75;;;-4.82;83.90
64835;BME280;51293;59.296;18.006;2023-02-04T00:35:30;102335.66;;;-4.84;83.84
64835;BME280;51293;59.296;18.006;2023-02-04T00:37:55;102337.44;;;-4.85;83.81
64835;BME280;51293;59.296;18.006;2023-02-04T00:40:21;102343.47;;;-4.83;83.92
64835;BME280;51293;59.296;18.006;2023-02-04T00:42:46;102348.13;;;-4.86;83.75
64835;BME280;51293;59.296;18.006;2023-02-04T00:45:12;102359.13;;;-4.94;84.05
64835;BME280;51293;59.296;18.006;2023-02-04T00:47:37;102359.63;;;-4.87;84.51
64835;BME280;51293;59.296;18.006;2023-02-04T00:50:03;102358.84;;;-4.89;84.78
64835;BME280;51293;59.296;18.006;2023-02-04T00:52:28;102357.84;;;-4.87;84.47
64835;BME280;51293;59.296;18.006;2023-02-04T00:54:54;102366.03;;;-4.91;84.70
64835;BME280;51293;59.296;18.006;2023-02-04T00:57:19;102362.28;;;-4.87;85.25
64835;BME280;51293;59.296;18.006;2023-02-04T00:59:45;102366.16;;;-4.78;84.05
64835;BME280;51293;59.296;18.006;2023-02-04T01:02:10;102370.22;;;-4.73;84.22
64835;BME280;51293;59.296;18.006;2023-02-04T01:04:35;102375.09;;;-4.81;84.68
64835;BME280;51293;59.296;18.006;2023-02-04T01:07:01;102380.34;;;-4.79;84.54
64835;BME280;51293;59.296;18.006;2023-02-04T01:09:26;102374.00;;;-4.77;83.77
64835;BME280;51293;59.296;18.006;2023-02-04T01:11:51;102375.25;;;-4.68;84.00
64835;BME280;51293;59.296;18.006;2023-02-04T01:14:17;102379.84;;;-4.72;84.25
64835;BME280;51293;59.296;18.006;2023-02-04T01:16:42;102391.56;;;-4.76;84.33
64835;BME280;51293;59.296;18.006;2023-02-04T01:19:09;102381.38;;;-4.68;83.64
64835;BME280;51293;59.296;18.006;2023-02-04T01:21:34;102393.25;;;-4.75;83.67
64835;BME280;51293;59.296;18.006;2023-02-04T01:24:00;102403.25;;;-4.80;83.85
64835;BME280;51293;59.296;18.006;2023-02-04T01:26:25;102405.22;;;-4.84;83.95
64835;BME280;51293;59.296;18.006;2023-02-04T01:28:51;102409.91;;;-4.89;84.14
64835;BME280;51293;59.296;18.006;2023-02-04T01:31:16;102408.72;;;-4.83;83.80
64835;BME280;51293;59.296;18.006;2023-02-04T01:33:41;102419.09;;;-4.94;84.55
64835;BME280;51293;59.296;18.006;2023-02-04T01:36:07;102416.88;;;-5.02;84.89
64835;BME280;51293;59.296;18.006;2023-02-04T01:38:33;102422.16;;;-5.02;85.02
64835;BME280;51293;59.296;18.006;2023-02-04T01:40:58;102418.06;;;-5.07;85.23
64835;BME280;51293;59.296;18.006;2023-02-04T01:43:25;102418.59;;;-5.17;85.46
64835;BME280;51293;59.296;18.006;2023-02-04T01:45:51;102433.94;;;-5.23;85.69
64835;BME280;51293;59.296;18.006;2023-02-04T01:48:19;102433.09;;;-5.24;85.82
64835;BME280;51293;59.296;18.006;2023-02-04T01:50:50;102431.72;;;-5.15;85.66
64835;BME280;51293;59.296;18.006;2023-02-04T01:53:20;102437.38;;;-5.21;86.34
64835;BME280;51293;59.296;18.006;2023-02-04T01:55:47;102446.16;;;-5.21;86.41
64835;BME280;51293;59.296;18.006;2023-02-04T01:58:13;102456.78;;;-5.22;86.75
64835;BME280;51293;59.296;18.006;2023-02-04T02:00:39;102452.63;;;-5.26;86.75
64835;BME280;51293;59.296;18.006;2023-02-04T02:03:05;102456.63;;;-5.35;87.02
64835;BME280;51293;59.296;18.006;2023-02-04T02:05:51;102469.56;;;-5.30;87.05
64835;BME280;51293;59.296;18.006;2023-02-04T02:08:17;102475.88;;;-5.33;87.46
64835;BME280;51293;59.296;18.006;2023-02-04T02:10:45;102472.63;;;-5.38;87.48
64835;BME280;51293;59.296;18.006;2023-02-04T02:13:14;102470.00;;;-5.38;87.88
64835;BME280;51293;59.296;18.006;2023-02-04T02:15:40;102474.78;;;-5.29;87.57
64835;BME280;51293;59.296;18.006;2023-02-04T02:18:06;102497.53;;;-5.42;88.51
64835;BME280;51293;59.296;18.006;2023-02-04T02:20:32;102499.03;;;-5.38;88.66
64835;BME280;51293;59.296;18.006;2023-02-04T02:25:51;102510.97;;;-5.31;88.53
64835;BME280;51293;59.296;18.006;2023-02-04T02:28:20;102514.56;;;-5.32;88.19
64835;BME280;51293;59.296;18.006;2023-02-04T02:30:47;102514.47;;;-5.30;88.65
64835;BME280;51293;59.296;18.006;2023-02-04T02:33:15;102518.47;;;-5.23;88.67
64835;BME280;51293;59.296;18.006;2023-02-04T02:35:42;102521.31;;;-5.11;88.35
64835;BME280;51293;59.296;18.006;2023-02-04T02:38:10;102521.72;;;-5.18;88.63
64835;BME280;51293;59.296;18.006;2023-02-04T02:40:36;102521.47;;;-5.14;88.48
64835;BME280;51293;59.296;18.006;2023-02-04T02:43:01;102536.56;;;-5.00;88.30
64835;BME280;51293;59.296;18.006;2023-02-04T02:45:29;102545.25;;;-5.14;88.31
64835;BME280;51293;59.296;18.006;2023-02-04T02:47:58;102549.25;;;-5.06;88.92
64835;BME280;51293;59.296;18.006;2023-02-04T02:50:26;102552.84;;;-5.07;89.04
64835;BME280;51293;59.296;18.006;2023-02-04T02:52:53;102546.97;;;-5.13;89.03
64835;BME280;51293;59.296;18.006;2023-02-04T02:55:21;102560.19;;;-5.13;89.22
64835;BME280;51293;59.296;18.006;2023-02-04T02:57:48;102569.88;;;-5.13;89.42
64835;BME280;51293;59.296;18.006;2023-02-04T03:00:19;102575.53;;;-5.03;89.96
64835;BME280;51293;59.296;18.006;2023-02-04T03:02:59;102578.09;;;-5.02;88.93
64835;BME280;51293;59.296;18.006;2023-02-04T03:05:28;102579.78;;;-5.01;89.50
64835;BME280;51293;59.296;18.006;2023-02-04T03:07:54;102578.16;;;-5.03;89.53
64835;BME280;51293;59.296;18.006;2023-02-04T03:10:20;102592.81;;;-4.98;89.40
64835;BME280;51293;59.296;18.006;2023-02-04T03:12:46;102578.31;;;-5.06;89.29
64835;BME280;51293;59.296;18.006;2023-02-04T03:15:12;102591.72;;;-5.10;89.22
64835;BME280;51293;59.296;18.006;2023-02-04T03:17:38;102588.75;;;-5.03;89.28
64835;BME280;51293;59.296;18.006;2023-02-04T03:20:19;102594.34;;;-5.10;89.36
64835;BME280;51293;59.296;18.006;2023-02-04T03:22:51;102592.66;;;-5.11;89.35
64835;BME280;51293;59.296;18.006;2023-02-04T03:25:17;102589.25;;;-5.13;89.05
64835;BME280;51293;59.296;18.006;2023-02-04T03:27:45;102596.38;;;-5.15;89.06
64835;BME280;51293;59.296;18.006;2023-02-04T03:30:10;102602.94;;;-5.22;88.88
64835;BME280;51293;59.296;18.006;2023-02-04T03:32:36;102586.59;;;-5.28;88.75
64835;BME280;51293;59.296;18.006;2023-02-04T03:35:01;102599.97;;;-5.16;87.95
64835;BME280;51293;59.296;18.006;2023-02-04T03:37:26;102605.88;;;-5.11;88.04
64835;BME280;51293;59.296;18.006;2023-02-04T03:39:52;102619.22;;;-5.29;88.45
64835;BME280;51293;59.296;18.006;2023-02-04T03:42:17;102622.50;;;-5.42;89.14
64835;BME280;51293;59.296;18.006;2023-02-04T03:44:43;102636.09;;;-5.49;89.53
64835;BME280;51293;59.296;18.006;2023-02-04T03:47:08;102634.22;;;-5.47;89.27
64835;BME280;51293;59.296;18.006;2023-02-04T03:49:33;102640.16;;;-5.59;89.79
64835;BME280;51293;59.296;18.006;2023-02-04T03:52:00;102641.00;;;-5.59;89.81
64835;BME280;51293;59.296;18.006;2023-02-04T03:54:26;102646.22;;;-5.57;90.23
64835;BME280;51293;59.296;18.006;2023-02-04T03:56:51;102659.59;;;-5.60;90.50
64835;BME280;51293;59.296;18.006;2023-02-04T03:59:17;102658.56;;;-5.58;90.40
64835;BME280;51293;59.296;18.006;2023-02-04T04:01:42;102667.03;;;-5.51;90.26
64835;BME280;51293;59.296;18.006;2023-02-04T04:04:07;102667.72;;;-5.65;91.00
64835;BME280;51293;59.296;18.006;2023-02-04T04:06:33;102670.53;;;-5.68;91.18
64835;BME280;51293;59.296;18.006;2023-02-04T04:08:58;102670.91;;;-5.76;91.31
64835;BME280;51293;59.296;18.006;2023-02-04T04:11:23;102677.75;;;-5.72;91.19
64835;BME280;51293;59.296;18.006;2023-02-04T04:13:49;102684.34;;;-5.80;91.36
64835;BME280;51293;59.296;18.006;2023-02-04T04:16:14;102685.66;;;-5.89;91.64
64835;BME280;51293;59.296;18.006;2023-02-04T04:18:39;102685.94;;;-5.93;91.85
64835;BME280;51293;59.296;18.006;2023-02-04T04:21:05;102691.13;;;-5.92;92.01
64835;BME280;51293;59.296;18.006;2023-02-04T04:23:30;102699.66;;;-5.87;92.13
64835;BME280;51293;59.296;18.006;2023-02-04T04:25:56;102697.88;;;-5.86;91.92
64835;BME280;51293;59.296;18.006;2023-02-04T04:28:21;102698.19;;;-5.92;92.15
64835;BME280;51293;59.296;18.006;2023-02-04T04:30:46;102707.34;;;-6.00;92.16
64835;BME280;51293;59.296;18.006;2023-02-04T04:33:12;102707.41;;;-6.01;92.22
64835;BME280;51293;59.296;18.006;2023-02-04T04:35:37;102708.97;;;-5.97;92.26
64835;BME280;51293;59.296;18.006;2023-02-04T04:38:03;102716.56;;;-6.08;92.37
64835;BME280;51293;59.296;18.006;2023-02-04T04:40:28;102726.41;;;-6.12;92.46
64835;BME280;51293;59.296;18.006;2023-02-04T04:42:54;102728.03;;;-6.09;92.60
64835;BME280;51293;59.296;18.006;2023-02-04T04:45:19;102743.09;;;-6.11;92.53
64835;BME280;51293;59.296;18.006;2023-02-04T04:47:45;102739.28;;;-6.06;92.45
64835;BME280;51293;59.296;18.006;2023-02-04T04:50:11;102741.94;;;-6.06;92.35
64835;BME280;51293;59.296;18.006;2023-02-04T04:52:36;102742.78;;;-6.05;92.12
64835;BME280;51293;59.296;18.006;2023-02-04T04:55:02;102746.78;;;-6.15;92.51
64835;BME280;51293;59.296;18.006;2023-02-04T04:57:28;102755.34;;;-6.10;92.57
64835;BME280;51293;59.296;18.006;2023-02-04T04:59:53;102762.13;;;-6.24;92.51
64835;BME280;51293;59.296;18.006;2023-02-04T05:02:19;102767.63;;;-6.09;92.20
64835;BME280;51293;59.296;18.006;2023-02-04T05:04:44;102776.94;;;-6.21;92.29
64835;BME280;51293;59.296;18.006;2023-02-04T05:07:09;102780.47;;;-6.20;92.15
64835;BME280;51293;59.296;18.006;2023-02-04T05:09:35;102792.84;;;-6.23;92.67
64835;BME280;51293;59.296;18.006;2023-02-04T05:12:00;102780.66;;;-6.25;92.72
64835;BME280;51293;59.296;18.006;2023-02-04T05:14:27;102784.66;;;-6.16;92.62
64835;BME280;51293;59.296;18.006;2023-02-04T05:16:52;102793.91;;;-6.08;92.44
64835;BME280;51293;59.296;18.006;2023-02-04T05:19:17;102801.63;;;-6.03;92.40
64835;BME280;51293;59.296;18.006;2023-02-04T05:21:43;102806.59;;;-5.97;92.16
64835;BME280;51293;59.296;18.006;2023-02-04T05:24:08;102808.47;;;-5.99;92.16
64835;BME280;51293;59.296;18.006;2023-02-04T05:26:33;102818.16;;;-6.00;91.83
64835;BME280;51293;59.296;18.006;2023-02-04T05:28:59;102818.31;;;-6.03;92.05
64835;BME280;51293;59.296;18.006;2023-02-04T05:31:24;102833.84;;;-5.97;91.76
64835;BME280;51293;59.296;18.006;2023-02-04T05:33:50;102833.13;;;-6.00;91.65
64835;BME280;51293;59.296;18.006;2023-02-04T05:36:15;102833.41;;;-6.06;92.01
64835;BME280;51293;59.296;18.006;2023-02-04T05:38:42;102838.56;;;-6.03;91.87
64835;BME280;51293;59.296;18.006;2023-02-04T05:41:07;102838.97;;;-6.12;91.98
64835;BME280;51293;59.296;18.006;2023-02-04T05:43:32;102832.13;;;-6.16;92.27
64835;BME280;51293;59.296;18.006;2023-02-04T05:45:58;102841.84;;;-6.17;92.13
64835;BME280;51293;59.296;18.006;2023-02-04T05:48:23;102840.13;;;-6.18;91.95
64835;BME280;51293;59.296;18.006;2023-02-04T05:50:48;102842.78;;;-6.18;92.13
64835;BME280;51293;59.296;18.006;2023-02-04T05:53:14;102844.91;;;-6.26;92.23
64835;BME280;51293;59.296;18.006;2023-02-04T05:55:39;102842.47;;;-6.31;92.34
64835;BME280;51293;59.296;18.006;2023-02-04T05:58:04;102839.41;;;-6.22;92.22
64835;BME280;51293;59.296;18.006;2023-02-04T06:00:30;102851.69;;;-6.20;91.84
64835;BME280;51293;59.296;18.006;2023-02-04T06:02:55;102846.25;;;-6.36;92.24
64835;BME280;51293;59.296;18.006;2023-02-04T06:05:20;102851.97;;;-6.27;91.83
64835;BME280;51293;59.296;18.006;2023-02-04T06:07:47;102875.03;;;-6.32;91.76
64835;BME280;51293;59.296;18.006;2023-02-04T06:10:12;102872.66;;;-6.38;91.92
64835;BME280;51293;59.296;18.006;2023-02-04T06:12:38;102873.91;;;-6.45;92.35
64835;BME280;51293;59.296;18.006;2023-02-04T06:15:04;102876.56;;;-6.46;92.16
64835;BME280;51293;59.296;18.006;2023-02-04T06:17:29;102876.03;;;-6.34;91.73
64835;BME280;51293;59.296;18.006;2023-02-04T06:19:55;102879.16;;;-6.45;91.88
64835;BME280;51293;59.296;18.006;2023-02-04T06:22:20;102878.66;;;-6.53;92.17
64835;BME280;51293;59.296;18.006;2023-02-04T06:24:45;102888.28;;;-6.52;92.38
64835;BME280;51293;59.296;18.006;2023-02-04T06:27:11;102888.97;;;-6.48;92.15
64835;BME280;51293;59.296;18.006;2023-02-04T06:29:36;102896.50;;;-6.60;92.33
64835;BME280;51293;59.296;18.006;2023-02-04T06:32:02;102896.78;;;-6.66;92.46
64835;BME280;51293;59.296;18.006;2023-02-04T06:34:27;102904.41;;;-6.60;92.52
64835;BME280;51293;59.296;18.006;2023-02-04T06:36:52;102911.81;;;-6.68;92.40
64835;BME280;51293;59.296;18.006;2023-02-04T06:39:18;102909.44;;;-6.74;92.74
64835;BME280;51293;59.296;18.006;2023-02-04T06:41:45;102910.34;;;-6.75;92.72
64835;BME280;51293;59.296;18.006;2023-02-04T06:44:10;102904.28;;;-6.77;92.86
64835;BME280;51293;59.296;18.006;2023-02-04T06:46:35;102914.16;;;-6.82;93.21
64835;BME280;51293;59.296;18.006;2023-02-04T06:49:01;102920.34;;;-6.83;93.33
64835;BME280;51293;59.296;18.006;2023-02-04T06:51:26;102934.53;;;-6.86;93.40
64835;BME280;51293;59.296;18.006;2023-02-04T06:53:51;102924.84;;;-6.85;93.42
64835;BME280;51293;59.296;18.006;2023-02-04T06:56:17;102919.44;;;-6.82;93.70
64835;BME280;51293;59.296;18.006;2023-02-04T06:58:42;102943.88;;;-6.79;93.31
64835;BME280;51293;59.296;18.006;2023-02-04T07:01:07;102948.16;;;-6.76;93.32
64835;BME280;51293;59.296;18.006;2023-02-04T07:03:33;102952.44;;;-6.73;93.50
64835;BME280;51293;59.296;18.006;2023-02-04T07:05:58;102969.88;;;-6.69;93.42
64835;BME280;51293;59.296;18.006;2023-02-04T07:08:24;102970.91;;;-6.73;93.19
64835;BME280;51293;59.296;18.006;2023-02-04T07:10:49;102980.50;;;-6.72;93.02
64835;BME280;51293;59.296;18.006;2023-02-04T07:13:14;102978.09;;;-6.77;93.33
64835;BME280;51293;59.296;18.006;2023-02-04T07:15:40;102986.78;;;-6.75;93.27
64835;BME280;51293;59.296;18.006;2023-02-04T07:18:05;102986.91;;;-6.78;93.12
64835;BME280;51293;59.296;18.006;2023-02-04T07:20:30;102991.56;;;-6.85;93.12
64835;BME280;51293;59.296;18.006;2023-02-04T07:22:56;102996.47;;;-6.75;92.89
64835;BME280;51293;59.296;18.006;2023-02-04T07:25:21;102996.16;;;-6.68;92.43
64835;BME280;51293;59.296;18.006;2023-02-04T07:27:47;103002.66;;;-6.76;92.26
64835;BME280;51293;59.296;18.006;2023-02-04T07:30:13;103004.44;;;-6.77;92.55
64835;BME280;51293;59.296;18.006;2023-02-04T07:32:38;103011.34;;;-6.74;92.36
64835;BME280;51293;59.296;18.006;2023-02-04T07:35:04;103006.16;;;-6.76;92.35
64835;BME280;51293;59.296;18.006;2023-02-04T07:37:30;103007.19;;;-6.80;92.54
64835;BME280;51293;59.296;18.006;2023-02-04T07:39:55;103013.31;;;-6.80;92.54
64835;BME280;51293;59.296;18.006;2023-02-04T07:42:20;103019.97;;;-6.71;92.43
64835;BME280;51293;59.296;18.006;2023-02-04T07:44:46;103026.25;;;-6.73;92.30
64835;BME280;51293;59.296;18.006;2023-02-04T07:47:11;103038.09;;;-6.62;92.11
64835;BME280;51293;59.296;18.006;2023-02-04T07:49:37;103030.38;;;-6.46;91.67
64835;BME280;51293;59.296;18.006;2023-02-04T07:52:03;103038.28;;;-6.46;91.18
64835;BME280;51293;59.296;18.006;2023-02-04T07:54:28;103031.22;;;-6.45;91.09
64835;BME280;51293;59.296;18.006;2023-02-04T07:56:53;103033.50;;;-6.36;90.90
64835;BME280;51293;59.296;18.006;2023-02-04T07:59:19;103048.66;;;-6.21;89.69
64835;BME280;51293;59.296;18.006;2023-02-04T08:01:44;103056.56;;;-6.21;89.26
64835;BME280;51293;59.296;18.006;2023-02-04T08:04:12;103051.34;;;-6.23;89.65
64835;BME280;51293;59.296;18.006;2023-02-04T08:06:37;103057.44;;;-6.20;89.47
64835;BME280;51293;59.296;18.006;2023-02-04T08:09:02;103069.50;;;-6.15;89.54
64835;BME280;51293;59.296;18.006;2023-02-04T08:11:28;103058.84;;;-6.12;89.26
64835;BME280;51293;59.296;18.006;2023-02-04T08:13:53;103067.13;;;-6.21;89.73
64835;BME280;51293;59.296;18.006;2023-02-04T08:16:18;103063.91;;;-6.07;89.46
64835;BME280;51293;59.296;18.006;2023-02-04T08:18:44;103072.69;;;-5.88;88.50
64835;BME280;51293;59.296;18.006;2023-02-04T08:21:09;103066.88;;;-5.76;87.32
64835;BME280;51293;59.296;18.006;2023-02-04T08:23:35;103073.22;;;-5.80;87.35
64835;BME280;51293;59.296;18.006;2023-02-04T08:26:05;103074.53;;;-5.70;87.06
64835;BME280;51293;59.296;18.006;2023-02-04T08:28:31;103080.34;;;-5.61;86.94
64835;BME280;51293;59.296;18.006;2023-02-04T08:30:56;103087.00;;;-5.53;86.57
64835;BME280;51293;59.296;18.006;2023-02-04T08:33:22;103096.13;;;-5.41;86.09
64835;BME280;51293;59.296;18.006;2023-02-04T08:35:47;103088.56;;;-5.30;85.23
64835;BME280;51293;59.296;18.006;2023-02-04T08:38:12;103096.28;;;-5.06;84.39
64835;BME280;51293;59.296;18.006;2023-02-04T08:40:38;103085.84;;;-4.91;83.51
64835;BME280;51293;59.296;18.006;2023-02-04T08:43:03;103097.69;;;-4.81;82.74
64835;BME280;51293;59.296;18.006;2023-02-04T08:45:28;103103.56;;;-4.74;82.41
64835;BME280;51293;59.296;18.006;2023-02-04T08:47:54;103105.19;;;-4.53;81.90
64835;BME280;51293;59.296;18.006;2023-02-04T08:50:19;103113.81;;;-4.49;80.76
64835;BME280;51293;59.296;18.006;2023-02-04T08:52:45;103111.75;;;-4.25;80.22
64835;BME280;51293;59.296;18.006;2023-02-04T08:55:10;103108.97;;;-4.05;80.00
64835;BME280;51293;59.296;18.006;2023-02-04T08:57:35;103118.63;;;-3.86;78.95
64835;BME280;51293;59.296;18.006;2023-02-04T09:00:01;103123.81;;;-3.68;78.07
64835;BME280;51293;59.296;18.006;2023-02-04T09:02:26;103122.69;;;-3.46;76.77
64835;BME280;51293;59.296;18.006;2023-02-04T09:04:52;103123.75;;;-3.33;76.41
64835;BME280;51293;59.296;18.006;2023-02-04T09:07:17;103125.97;;;-3.25;76.05
64835;BME280;51293;59.296;18.006;2023-02-04T09:09:42;103134.16;;;-2.97;75.16
64835;BME280;51293;59.296;18.006;2023-02-04T09:12:08;103138.88;;;-2.55;73.63
64835;BME280;51293;59.296;18.006;2023-02-04T09:14:33;103142.97;;;-2.49;72.75
64835;BME280;51293;59.296;18.006;2023-02-04T09:16:59;103133.72;;;-2.73;72.36
64835;BME280;51293;59.296;18.006;2023-02-04T09:19:24;103151.34;;;-2.41;71.92
64835;BME280;51293;59.296;18.006;2023-02-04T09:21:53;103149.97;;;-2.32;71.85
64835;BME280;51293;59.296;18.006;2023-02-04T09:24:18;103149.88;;;-2.15;71.08
64835;BME280;51293;59.296;18.006;2023-02-04T09:26:44;103143.22;;;-2.38;71.64
64835;BME280;51293;59.296;18.006;2023-02-04T09:29:09;103148.97;;;-2.61;72.16
64835;BME280;51293;59.296;18.006;2023-02-04T09:31:34;103160.44;;;-2.61;72.55
64835;BME280;51293;59.296;18.006;2023-02-04T09:34:00;103168.38;;;-2.92;73.82
64835;BME280;51293;59.296;18.006;2023-02-04T09:36:25;103157.25;;;-3.32;75.20
64835;BME280;51293;59.296;18.006;2023-02-04T09:38:53;103152.75;;;-3.30;75.93
64835;BME280;51293;59.296;18.006;2023-02-04T09:41:18;103162.75;;;-3.52;76.63
64835;BME280;51293;59.296;18.006;2023-02-04T09:43:44;103167.13;;;-3.51;77.32
64835;BME280;51293;59.296;18.006;2023-02-04T09:46:21;103167.03;;;-3.50;77.42
64835;BME280;51293;59.296;18.006;2023-02-04T09:48:48;103176.63;;;-3.47;77.25
64835;BME280;51293;59.296;18.006;2023-02-04T09:51:21;103174.38;;;-3.55;77.50
64835;BME280;51293;59.296;18.006;2023-02-04T09:53:48;103173.28;;;-3.68;78.42
64835;BME280;51293;59.296;18.006;2023-02-04T09:56:14;103176.41;;;-3.60;78.41
64835;BME280;51293;59.296;18.006;2023-02-04T09:58:41;103168.44;;;-3.43;78.08
64835;BME280;51293;59.296;18.006;2023-02-04T10:01:15;103182.31;;;-3.37;77.97
64835;BME280;51293;59.296;18.006;2023-02-04T10:03:42;103179.78;;;-3.41;77.99
64835;BME280;51293;59.296;18.006;2023-02-04T10:06:29;103180.06;;;-3.12;76.45
64835;BME280;51293;59.296;18.006;2023-02-04T10:08:55;103175.03;;;-3.01;76.04
64835;BME280;51293;59.296;18.006;2023-02-04T10:11:22;103180.91;;;-2.78;75.31
64835;BME280;51293;59.296;18.006;2023-02-04T10:13:53;103188.53;;;-2.72;74.76
64835;BME280;51293;59.296;18.006;2023-02-04T10:16:29;103199.41;;;-2.45;74.10
64835;BME280;51293;59.296;18.006;2023-02-04T10:19:06;103191.09;;;-2.39;73.82
64835;BME280;51293;59.296;18.006;2023-02-04T10:21:35;103185.78;;;-2.39;73.57
64835;BME280;51293;59.296;18.006;2023-02-04T10:24:04;103188.94;;;-2.33;73.65
64835;BME280;51293;59.296;18.006;2023-02-04T10:26:31;103197.16;;;-2.21;72.65
64835;BME280;51293;59.296;18.006;2023-02-04T10:29:03;103207.34;;;-1.98;72.00
64835;BME280;51293;59.296;18.006;2023-02-04T10:31:35;103209.53;;;-1.90;71.24
64835;BME280;51293;59.296;18.006;2023-02-04T10:36:31;103226.22;;;-1.73;71.00
64835;BME280;51293;59.296;18.006;2023-02-04T10:39:05;103215.03;;;-1.63;70.01
64835;BME280;51293;59.296;18.006;2023-02-04T10:41:31;103215.19;;;-1.81;70.41
64835;BME280;51293;59.296;18.006;2023-02-04T10:44:06;103231.94;;;-1.64;70.58
64835;BME280;51293;59.296;18.006;2023-02-04T10:46:33;103222.22;;;-1.95;71.01
64835;BME280;51293;59.296;18.006;2023-02-04T10:48:58;103224.84;;;-1.80;71.21
64835;BME280;51293;59.296;18.006;2023-02-04T10:51:24;103232.47;;;-1.74;71.55
64835;BME280;51293;59.296;18.006;2023-02-04T10:53:49;103228.94;;;-1.74;70.48
64835;BME280;51293;59.296;18.006;2023-02-04T10:56:34;103226.88;;;-1.69;70.96
64835;BME280;51293;59.296;18.006;2023-02-04T10:58:59;103234.41;;;-1.61;70.55
64835;BME280;51293;59.296;18.006;2023-02-04T11:01:31;103224.44;;;-1.58;70.60
64835;BME280;51293;59.296;18.006;2023-02-04T11:03:57;103235.03;;;-1.72;70.54
64835;BME280;51293;59.296;18.006;2023-02-04T11:06:23;103237.66;;;-1.56;70.29
64835;BME280;51293;59.296;18.006;2023-02-04T11:08:49;103223.81;;;-1.47;69.71
64835;BME280;51293;59.296;18.006;2023-02-04T11:11:20;103231.09;;;-1.51;70.06
64835;BME280;51293;59.296;18.006;2023-02-04T11:18:47;103234.22;;;-1.58;70.02
64835;BME280;51293;59.296;18.006;2023-02-04T11:24:05;103229.53;;;-1.39;69.93
64835;BME280;51293;59.296;18.006;2023-02-04T11:37:09;103234.34;;;-1.16;69.18
64835;BME280;51293;59.296;18.006;2023-02-04T11:39:41;103237.91;;;-1.31;69.46
64835;BME280;51293;59.296;18.006;2023-02-04T11:43:00;103238.22;;;-1.21;68.75
64835;BME280;51293;59.296;18.006;2023-02-04T11:45:24;103241.34;;;-1.15;68.93
64835;BME280;51293;59.296;18.006;2023-02-04T11:47:51;103247.34;;;-1.11;68.87
64835;BME280;51293;59.296;18.006;2023-02-04T11:50:21;103247.34;;;-1.11;69.11
64835;BME280;51293;59.296;18.006;2023-02-04T11:52:49;103251.81;;;-0.97;68.86
64835;BME280;51293;59.296;18.006;2023-02-04T11:55:14;103253.47;;;-1.25;69.45
64835;BME280;51293;59.296;18.006;2023-02-04T11:57:41;103256.06;;;-1.09;69.01
64835;BME280;51293;59.296;18.006;2023-02-04T12:00:18;103252.97;;;-0.87;68.54
64835;BME280;51293;59.296;18.006;2023-02-04T12:02:46;103249.72;;;-0.78;68.33
64835;BME280;51293;59.296;18.006;2023-02-04T12:05:14;103260.38;;;-0.64;67.63
64835;BME280;51293;59.296;18.006;2023-02-04T12:07:40;103267.00;;;-0.42;67.25
64835;BME280;51293;59.296;18.006;2023-02-04T12:12:47;103266.50;;;0.07;65.43
64835;BME280;51293;59.296;18.006;2023-02-04T12:15:30;103274.16;;;-0.02;65.46
64835;BME280;51293;59.296;18.006;2023-02-04T12:18:04;103274.81;;;0.02;64.78
64835;BME280;51293;59.296;18.006;2023-02-04T12:20:32;103278.25;;;0.04;64.56
64835;BME280;51293;59.296;18.006;2023-02-04T12:22:57;103285.94;;;0.36;64.23
64835;BME280;51293;59.296;18.006;2023-02-04T12:25:23;103276.69;;;0.14;64.18
64835;BME280;51293;59.296;18.006;2023-02-04T12:27:49;103280.19;;;0.15;64.14
64835;BME280;51293;59.296;18.006;2023-02-04T12:30:15;103281.13;;;-0.13;64.82
64835;BME280;51293;59.296;18.006;2023-02-04T12:32:42;103279.31;;;-0.13;65.31
64835;BME280;51293;59.296;18.006;2023-02-04T12:35:08;103273.63;;;-0.21;65.54
64835;BME280;51293;59.296;18.006;2023-02-04T12:37:33;103275.56;;;-0.37;65.97
64835;BME280;51293;59.296;18.006;2023-02-04T12:39:59;103279.28;;;-0.54;66.51
64835;BME280;51293;59.296;18.006;2023-02-04T12:42:24;103283.66;;;-0.81;67.24
64835;BME280;51293;59.296;18.006;2023-02-04T12:44:49;103282.72;;;-0.80;67.65
64835;BME280;51293;59.296;18.006;2023-02-04T12:47:15;103285.75;;;-0.87;67.83
64835;BME280;51293;59.296;18.006;2023-02-04T12:49:40;103279.06;;;-1.08;68.61
64835;BME280;51293;59.296;18.006;2023-02-04T12:52:06;103286.00;;;-1.05;68.52
64835;BME280;51293;59.296;18.006;2023-02-04T12:54:31;103292.59;;;-1.27;69.45
64835;BME280;51293;59.296;18.006;2023-02-04T12:56:56;103292.97;;;-1.33;69.61
64835;BME280;51293;59.296;18.006;2023-02-04T12:59:27;103298.69;;;-1.25;69.83
64835;BME280;51293;59.296;18.006;2023-02-04T13:01:52;103300.75;;;-1.60;70.57
64835;BME280;51293;59.296;18.006;2023-02-04T13:04:18;103304.31;;;-1.45;70.48